Terminal Aerodrome Forecast
Issued by NWS

Home | Current Version | Previous Version | Graphics & Text | Print | Product List | Glossary Off
Versions: 1 2 3 4 5 6 7 8 9 10 11 12 13 14 15

000
FTUS43 KABR 222330
TAFATY
TAF
KATY 222330Z 2300/2324 13006KT P6SM BKN100 PROB30 2309/2312 P6SM
      -RA
     FM231200 15005KT P6SM VCSH OVC050
     FM231600 16008KT P6SM VCSH OVC035=

USA.gov is the U.S. government's official web portal to all federal, state and local government web resources and services.